sensor_id;sensor_type;location;lat;lon;timestamp;temperature;humidity
25192;DHT22;13143;50.924;5.320;2023-07-02T00:01:48;18.90;99.90
25192;DHT22;13143;50.924;5.320;2023-07-02T00:04:15;18.90;99.90
25192;DHT22;13143;50.924;5.320;2023-07-02T00:06:47;18.90;99.90
25192;DHT22;13143;50.924;5.320;2023-07-02T00:09:13;18.80;99.90
25192;DHT22;13143;50.924;5.320;2023-07-02T00:11:42;18.80;99.90
25192;DHT22;13143;50.924;5.320;2023-07-02T00:14:10;18.80;99.90
25192;DHT22;13143;50.924;5.320;2023-07-02T00:16:38;18.80;99.90
25192;DHT22;13143;50.924;5.320;2023-07-02T00:19:05;18.80;99.90
25192;DHT22;13143;50.924;5.320;2023-07-02T00:21:31;18.80;99.90
25192;DHT22;13143;50.924;5.320;2023-07-02T00:23:59;18.80;99.90
25192;DHT22;13143;50.924;5.320;2023-07-02T00:26:27;18.80;99.90
25192;DHT22;13143;50.924;5.320;2023-07-02T00:28:54;18.70;99.90
25192;DHT22;13143;50.924;5.320;2023-07-02T00:31:21;18.70;99.90
25192;DHT22;13143;50.924;5.320;2023-07-02T00:33:48;18.70;99.90
25192;DHT22;13143;50.924;5.320;2023-07-02T00:36:14;18.70;99.90
25192;DHT22;13143;50.924;5.320;2023-07-02T00:38:47;18.70;99.90
25192;DHT22;13143;50.924;5.320;2023-07-02T00:41:14;18.70;99.90
25192;DHT22;13143;50.924;5.320;2023-07-02T00:43:40;18.70;99.90
25192;DHT22;13143;50.924;5.320;2023-07-02T00:46:18;18.60;99.90
25192;DHT22;13143;50.924;5.320;2023-07-02T00:48:49;18.60;99.90
25192;DHT22;13143;50.924;5.320;2023-07-02T00:51:24;18.60;99.90
25192;DHT22;13143;50.924;5.320;2023-07-02T00:53:53;18.60;99.90
25192;DHT22;13143;50.924;5.320;2023-07-02T00:56:21;18.60;99.90
25192;DHT22;13143;50.924;5.320;2023-07-02T00:58:49;18.60;99.90
25192;DHT22;13143;50.924;5.320;2023-07-02T01:01:18;18.60;99.90
25192;DHT22;13143;50.924;5.320;2023-07-02T01:04:00;18.60;99.90
25192;DHT22;13143;50.924;5.320;2023-07-02T01:06:34;18.50;99.90
25192;DHT22;13143;50.924;5.320;2023-07-02T01:09:01;18.60;99.90
25192;DHT22;13143;50.924;5.320;2023-07-02T01:11:33;18.50;99.90
25192;DHT22;13143;50.924;5.320;2023-07-02T01:14:08;18.50;99.90
25192;DHT22;13143;50.924;5.320;2023-07-02T01:16:36;18.50;99.90
25192;DHT22;13143;50.924;5.320;2023-07-02T01:19:05;18.50;99.90
25192;DHT22;13143;50.924;5.320;2023-07-02T01:21:36;18.50;99.90
25192;DHT22;13143;50.924;5.320;2023-07-02T01:24:03;18.50;99.90
25192;DHT22;13143;50.924;5.320;2023-07-02T01:26:30;18.50;99.90
25192;DHT22;13143;50.924;5.320;2023-07-02T01:29:00;18.40;99.90
25192;DHT22;13143;50.924;5.320;2023-07-02T01:31:36;18.40;99.90
25192;DHT22;13143;50.924;5.320;2023-07-02T01:34:04;18.40;99.90
25192;DHT22;13143;50.924;5.320;2023-07-02T01:36:30;18.40;99.90
25192;DHT22;13143;50.924;5.320;2023-07-02T01:38:56;18.40;99.90
25192;DHT22;13143;50.924;5.320;2023-07-02T01:41:23;18.40;99.90
25192;DHT22;13143;50.924;5.320;2023-07-02T01:43:49;18.30;99.90
25192;DHT22;13143;50.924;5.320;2023-07-02T01:46:15;18.30;99.90
25192;DHT22;13143;50.924;5.320;2023-07-02T01:48:41;18.30;99.90
25192;DHT22;13143;50.924;5.320;2023-07-02T01:51:07;18.30;99.90
25192;DHT22;13143;50.924;5.320;2023-07-02T01:53:33;18.30;99.90
25192;DHT22;13143;50.924;5.320;2023-07-02T01:55:59;18.30;99.90
25192;DHT22;13143;50.924;5.320;2023-07-02T01:58:25;18.30;99.90
25192;DHT22;13143;50.924;5.320;2023-07-02T02:00:51;18.30;99.90
25192;DHT22;13143;50.924;5.320;2023-07-02T02:03:17;18.30;99.90
25192;DHT22;13143;50.924;5.320;2023-07-02T02:05:43;18.30;99.90
25192;DHT22;13143;50.924;5.320;2023-07-02T02:08:09;18.30;99.90
25192;DHT22;13143;50.924;5.320;2023-07-02T02:10:35;18.20;99.90
25192;DHT22;13143;50.924;5.320;2023-07-02T02:13:01;18.20;99.90
25192;DHT22;13143;50.924;5.320;2023-07-02T02:15:28;18.20;99.90
25192;DHT22;13143;50.924;5.320;2023-07-02T02:17:54;18.20;99.90
25192;DHT22;13143;50.924;5.320;2023-07-02T02:20:20;18.20;99.90
25192;DHT22;13143;50.924;5.320;2023-07-02T02:22:46;18.20;99.90
25192;DHT22;13143;50.924;5.320;2023-07-02T02:25:12;18.20;99.90
25192;DHT22;13143;50.924;5.320;2023-07-02T02:27:38;18.20;99.90
25192;DHT22;13143;50.924;5.320;2023-07-02T02:30:04;18.20;99.90
25192;DHT22;13143;50.924;5.320;2023-07-02T02:32:31;18.20;99.90
25192;DHT22;13143;50.924;5.320;2023-07-02T02:34:57;18.10;99.90
25192;DHT22;13143;50.924;5.320;2023-07-02T02:37:23;18.10;99.90
25192;DHT22;13143;50.924;5.320;2023-07-02T02:39:49;18.10;99.90
25192;DHT22;13143;50.924;5.320;2023-07-02T02:42:16;18.10;99.90
25192;DHT22;13143;50.924;5.320;2023-07-02T02:44:42;18.10;99.90
25192;DHT22;13143;50.924;5.320;2023-07-02T02:47:08;18.10;99.90
25192;DHT22;13143;50.924;5.320;2023-07-02T02:49:37;18.10;99.90
25192;DHT22;13143;50.924;5.320;2023-07-02T02:52:04;18.10;99.90
25192;DHT22;13143;50.924;5.320;2023-07-02T02:54:30;18.10;99.90
25192;DHT22;13143;50.924;5.320;2023-07-02T02:56:56;18.10;99.90
25192;DHT22;13143;50.924;5.320;2023-07-02T02:59:22;18.10;99.90
25192;DHT22;13143;50.924;5.320;2023-07-02T03:01:48;18.00;99.90
25192;DHT22;13143;50.924;5.320;2023-07-02T03:04:14;18.00;99.90
25192;DHT22;13143;50.924;5.320;2023-07-02T03:06:40;18.00;99.90
25192;DHT22;13143;50.924;5.320;2023-07-02T03:09:06;18.00;99.90
25192;DHT22;13143;50.924;5.320;2023-07-02T03:11:33;18.00;99.90
25192;DHT22;13143;50.924;5.320;2023-07-02T03:13:59;18.00;99.90
25192;DHT22;13143;50.924;5.320;2023-07-02T03:16:25;18.00;99.90
25192;DHT22;13143;50.924;5.320;2023-07-02T03:18:51;18.00;99.90
25192;DHT22;13143;50.924;5.320;2023-07-02T03:21:17;18.00;99.90
25192;DHT22;13143;50.924;5.320;2023-07-02T03:23:43;17.90;99.90
25192;DHT22;13143;50.924;5.320;2023-07-02T03:26:10;17.90;99.90
25192;DHT22;13143;50.924;5.320;2023-07-02T03:28:36;17.90;99.90
25192;DHT22;13143;50.924;5.320;2023-07-02T03:31:02;17.90;99.90
25192;DHT22;13143;50.924;5.320;2023-07-02T03:33:28;17.90;99.90
25192;DHT22;13143;50.924;5.320;2023-07-02T03:35:54;17.90;99.90
25192;DHT22;13143;50.924;5.320;2023-07-02T03:38:20;17.90;99.90
25192;DHT22;13143;50.924;5.320;2023-07-02T03:40:46;17.90;99.90
25192;DHT22;13143;50.924;5.320;2023-07-02T03:43:12;17.90;99.90
25192;DHT22;13143;50.924;5.320;2023-07-02T03:45:38;17.90;99.90
25192;DHT22;13143;50.924;5.320;2023-07-02T03:48:04;17.90;99.90
25192;DHT22;13143;50.924;5.320;2023-07-02T03:50:31;17.90;99.90
25192;DHT22;13143;50.924;5.320;2023-07-02T03:52:57;17.90;99.90
25192;DHT22;13143;50.924;5.320;2023-07-02T03:55:23;17.80;99.90
25192;DHT22;13143;50.924;5.320;2023-07-02T03:57:49;17.80;99.90
25192;DHT22;13143;50.924;5.320;2023-07-02T04:00:15;17.80;99.90
25192;DHT22;13143;50.924;5.320;2023-07-02T04:02:42;17.80;99.90
25192;DHT22;13143;50.924;5.320;2023-07-02T04:05:08;17.80;99.90
25192;DHT22;13143;50.924;5.320;2023-07-02T04:07:34;17.80;99.90
25192;DHT22;13143;50.924;5.320;2023-07-02T04:10:00;17.80;99.90
25192;DHT22;13143;50.924;5.320;2023-07-02T04:12:27;17.80;99.90
25192;DHT22;13143;50.924;5.320;2023-07-02T04:14:53;17.80;99.90
25192;DHT22;13143;50.924;5.320;2023-07-02T04:17:20;17.80;99.90
25192;DHT22;13143;50.924;5.320;2023-07-02T04:19:46;17.80;99.90
25192;DHT22;13143;50.924;5.320;2023-07-02T04:22:12;17.80;99.90
25192;DHT22;13143;50.924;5.320;2023-07-02T04:24:38;17.80;99.90
25192;DHT22;13143;50.924;5.320;2023-07-02T04:27:04;17.80;99.90
25192;DHT22;13143;50.924;5.320;2023-07-02T04:29:31;17.80;99.90
25192;DHT22;13143;50.924;5.320;2023-07-02T04:31:57;17.70;99.90
25192;DHT22;13143;50.924;5.320;2023-07-02T04:34:23;17.80;99.90
25192;DHT22;13143;50.924;5.320;2023-07-02T04:36:49;17.70;99.90
25192;DHT22;13143;50.924;5.320;2023-07-02T04:39:15;17.70;99.90
25192;DHT22;13143;50.924;5.320;2023-07-02T04:41:41;17.70;99.90
25192;DHT22;13143;50.924;5.320;2023-07-02T04:44:07;17.70;99.90
25192;DHT22;13143;50.924;5.320;2023-07-02T04:46:34;17.70;99.90
25192;DHT22;13143;50.924;5.320;2023-07-02T04:49:00;17.70;99.90
25192;DHT22;13143;50.924;5.320;2023-07-02T04:51:26;17.70;99.90
25192;DHT22;13143;50.924;5.320;2023-07-02T04:53:52;17.70;99.90
25192;DHT22;13143;50.924;5.320;2023-07-02T04:56:18;17.70;99.90
25192;DHT22;13143;50.924;5.320;2023-07-02T04:58:44;17.70;99.90
25192;DHT22;13143;50.924;5.320;2023-07-02T05:01:10;17.70;99.90
25192;DHT22;13143;50.924;5.320;2023-07-02T05:03:37;17.70;99.90
25192;DHT22;13143;50.924;5.320;2023-07-02T05:06:04;17.70;99.90
25192;DHT22;13143;50.924;5.320;2023-07-02T05:08:30;17.70;99.90
25192;DHT22;13143;50.924;5.320;2023-07-02T05:10:56;17.70;99.90
25192;DHT22;13143;50.924;5.320;2023-07-02T05:13:22;17.70;99.90
25192;DHT22;13143;50.924;5.320;2023-07-02T05:15:48;17.70;99.90
25192;DHT22;13143;50.924;5.320;2023-07-02T05:18:14;17.70;99.90
25192;DHT22;13143;50.924;5.320;2023-07-02T05:20:41;17.70;99.90
25192;DHT22;13143;50.924;5.320;2023-07-02T05:23:07;17.70;99.90
25192;DHT22;13143;50.924;5.320;2023-07-02T05:25:33;17.70;99.90
25192;DHT22;13143;50.924;5.320;2023-07-02T05:27:59;17.70;99.90
25192;DHT22;13143;50.924;5.320;2023-07-02T05:30:25;17.70;99.90
25192;DHT22;13143;50.924;5.320;2023-07-02T05:32:51;17.70;99.90
25192;DHT22;13143;50.924;5.320;2023-07-02T05:35:17;17.70;99.90
25192;DHT22;13143;50.924;5.320;2023-07-02T05:37:43;17.70;99.90
25192;DHT22;13143;50.924;5.320;2023-07-02T05:40:11;17.70;99.90
25192;DHT22;13143;50.924;5.320;2023-07-02T05:42:37;17.70;99.90
25192;DHT22;13143;50.924;5.320;2023-07-02T05:45:03;17.70;99.90
25192;DHT22;13143;50.924;5.320;2023-07-02T05:47:30;17.70;99.90
25192;DHT22;13143;50.924;5.320;2023-07-02T05:49:56;17.70;99.90
25192;DHT22;13143;50.924;5.320;2023-07-02T05:52:22;17.70;99.90
25192;DHT22;13143;50.924;5.320;2023-07-02T05:54:48;17.70;99.90
25192;DHT22;13143;50.924;5.320;2023-07-02T05:57:14;17.80;99.90
25192;DHT22;13143;50.924;5.320;2023-07-02T05:59:40;17.80;99.90
25192;DHT22;13143;50.924;5.320;2023-07-02T06:02:06;17.70;99.90
25192;DHT22;13143;50.924;5.320;2023-07-02T06:04:32;17.70;99.90
25192;DHT22;13143;50.924;5.320;2023-07-02T06:06:59;17.80;99.90
25192;DHT22;13143;50.924;5.320;2023-07-02T06:09:25;17.80;99.90
25192;DHT22;13143;50.924;5.320;2023-07-02T06:11:51;17.80;99.90
25192;DHT22;13143;50.924;5.320;2023-07-02T06:14:17;17.80;99.90
25192;DHT22;13143;50.924;5.320;2023-07-02T06:16:43;17.80;99.90
25192;DHT22;13143;50.924;5.320;2023-07-02T06:19:09;17.80;99.90
25192;DHT22;13143;50.924;5.320;2023-07-02T06:21:36;17.80;99.90
25192;DHT22;13143;50.924;5.320;2023-07-02T06:24:02;17.80;99.90
25192;DHT22;13143;50.924;5.320;2023-07-02T06:26:29;17.80;99.90
25192;DHT22;13143;50.924;5.320;2023-07-02T06:28:55;17.80;99.90
25192;DHT22;13143;50.924;5.320;2023-07-02T06:31:22;17.80;99.90
25192;DHT22;13143;50.924;5.320;2023-07-02T06:33:48;17.80;99.90
25192;DHT22;13143;50.924;5.320;2023-07-02T06:36:14;17.80;99.90
25192;DHT22;13143;50.924;5.320;2023-07-02T06:38:41;17.80;99.90
25192;DHT22;13143;50.924;5.320;2023-07-02T06:41:07;17.80;99.90
25192;DHT22;13143;50.924;5.320;2023-07-02T06:43:33;17.80;99.90
25192;DHT22;13143;50.924;5.320;2023-07-02T06:45:59;17.90;99.90
25192;DHT22;13143;50.924;5.320;2023-07-02T06:48:25;17.90;99.90
25192;DHT22;13143;50.924;5.320;2023-07-02T06:50:51;17.90;99.90
25192;DHT22;13143;50.924;5.320;2023-07-02T06:53:17;17.90;99.90
25192;DHT22;13143;50.924;5.320;2023-07-02T06:55:43;17.90;99.90
25192;DHT22;13143;50.924;5.320;2023-07-02T06:58:09;17.90;99.90
25192;DHT22;13143;50.924;5.320;2023-07-02T07:00:35;17.90;99.90
25192;DHT22;13143;50.924;5.320;2023-07-02T07:03:04;17.90;99.90
25192;DHT22;13143;50.924;5.320;2023-07-02T07:05:31;18.00;99.90
25192;DHT22;13143;50.924;5.320;2023-07-02T07:07:59;18.00;99.90
25192;DHT22;13143;50.924;5.320;2023-07-02T07:10:25;18.00;99.90
25192;DHT22;13143;50.924;5.320;2023-07-02T07:12:51;18.00;99.90
25192;DHT22;13143;50.924;5.320;2023-07-02T07:15:17;18.10;99.90
25192;DHT22;13143;50.924;5.320;2023-07-02T07:17:43;18.10;99.90
25192;DHT22;13143;50.924;5.320;2023-07-02T07:20:09;18.10;99.90
25192;DHT22;13143;50.924;5.320;2023-07-02T07:22:36;18.10;99.90
25192;DHT22;13143;50.924;5.320;2023-07-02T07:25:02;18.10;99.90
25192;DHT22;13143;50.924;5.320;2023-07-02T07:27:28;18.10;99.90
25192;DHT22;13143;50.924;5.320;2023-07-02T07:29:54;18.20;99.90
25192;DHT22;13143;50.924;5.320;2023-07-02T07:32:20;18.20;99.90
25192;DHT22;13143;50.924;5.320;2023-07-02T07:34:47;18.20;99.90
25192;DHT22;13143;50.924;5.320;2023-07-02T07:37:13;18.20;99.90
25192;DHT22;13143;50.924;5.320;2023-07-02T07:39:39;18.20;99.90
25192;DHT22;13143;50.924;5.320;2023-07-02T07:42:06;18.30;99.90
25192;DHT22;13143;50.924;5.320;2023-07-02T07:44:32;18.20;99.90
25192;DHT22;13143;50.924;5.320;2023-07-02T07:46:58;18.30;99.90
25192;DHT22;13143;50.924;5.320;2023-07-02T07:49:24;18.30;99.90
25192;DHT22;13143;50.924;5.320;2023-07-02T07:51:50;18.30;99.90
25192;DHT22;13143;50.924;5.320;2023-07-02T07:54:16;18.30;99.90
25192;DHT22;13143;50.924;5.320;2023-07-02T07:56:42;18.30;99.90
25192;DHT22;13143;50.924;5.320;2023-07-02T07:59:08;18.40;99.90
25192;DHT22;13143;50.924;5.320;2023-07-02T08:01:37;18.40;99.90
25192;DHT22;13143;50.924;5.320;2023-07-02T08:04:03;18.40;99.90
25192;DHT22;13143;50.924;5.320;2023-07-02T08:06:29;18.50;99.90
25192;DHT22;13143;50.924;5.320;2023-07-02T08:08:55;18.50;99.90
25192;DHT22;13143;50.924;5.320;2023-07-02T08:11:21;18.50;99.90
25192;DHT22;13143;50.924;5.320;2023-07-02T08:13:47;18.50;99.90
25192;DHT22;13143;50.924;5.320;2023-07-02T08:16:13;18.50;99.90
25192;DHT22;13143;50.924;5.320;2023-07-02T08:18:39;18.50;99.90
25192;DHT22;13143;50.924;5.320;2023-07-02T08:21:05;18.60;99.90
25192;DHT22;13143;50.924;5.320;2023-07-02T08:23:33;18.60;99.90
25192;DHT22;13143;50.924;5.320;2023-07-02T08:25:59;18.60;99.90
25192;DHT22;13143;50.924;5.320;2023-07-02T08:28:25;18.60;99.90
25192;DHT22;13143;50.924;5.320;2023-07-02T08:30:51;18.60;99.90
25192;DHT22;13143;50.924;5.320;2023-07-02T08:33:17;18.60;99.90
25192;DHT22;13143;50.924;5.320;2023-07-02T08:35:43;18.60;99.90
25192;DHT22;13143;50.924;5.320;2023-07-02T08:38:09;18.60;99.90
25192;DHT22;13143;50.924;5.320;2023-07-02T08:40:35;18.60;99.90
25192;DHT22;13143;50.924;5.320;2023-07-02T08:43:01;18.70;99.90
25192;DHT22;13143;50.924;5.320;2023-07-02T08:45:28;18.70;99.90
25192;DHT22;13143;50.924;5.320;2023-07-02T08:47:54;18.70;99.90
25192;DHT22;13143;50.924;5.320;2023-07-02T08:50:22;18.70;99.90
25192;DHT22;13143;50.924;5.320;2023-07-02T08:52:49;18.80;99.90
25192;DHT22;13143;50.924;5.320;2023-07-02T08:55:16;18.80;99.90
25192;DHT22;13143;50.924;5.320;2023-07-02T08:57:49;18.80;99.90
25192;DHT22;13143;50.924;5.320;2023-07-02T09:00:16;18.80;99.90
25192;DHT22;13143;50.924;5.320;2023-07-02T09:02:42;18.80;99.90
25192;DHT22;13143;50.924;5.320;2023-07-02T09:05:08;18.80;99.90
25192;DHT22;13143;50.924;5.320;2023-07-02T09:07:46;18.90;99.90
25192;DHT22;13143;50.924;5.320;2023-07-02T09:10:28;18.90;99.90
25192;DHT22;13143;50.924;5.320;2023-07-02T09:13:08;18.90;99.90
25192;DHT22;13143;50.924;5.320;2023-07-02T09:15:39;18.90;99.90
25192;DHT22;13143;50.924;5.320;2023-07-02T09:18:34;18.90;99.90
25192;DHT22;13143;50.924;5.320;2023-07-02T09:21:00;19.00;99.90
25192;DHT22;13143;50.924;5.320;2023-07-02T09:23:35;19.00;99.90
25192;DHT22;13143;50.924;5.320;2023-07-02T09:26:02;19.00;99.90
25192;DHT22;13143;50.924;5.320;2023-07-02T09:28:29;19.00;99.90
25192;DHT22;13143;50.924;5.320;2023-07-02T09:30:56;19.00;99.90
25192;DHT22;13143;50.924;5.320;2023-07-02T09:33:29;19.00;99.90
25192;DHT22;13143;50.924;5.320;2023-07-02T09:35:55;19.00;99.90
25192;DHT22;13143;50.924;5.320;2023-07-02T09:38:22;19.10;99.90
25192;DHT22;13143;50.924;5.320;2023-07-02T09:40:52;19.10;99.90
25192;DHT22;13143;50.924;5.320;2023-07-02T09:43:18;19.10;99.90
25192;DHT22;13143;50.924;5.320;2023-07-02T09:45:50;19.10;99.90
25192;DHT22;13143;50.924;5.320;2023-07-02T09:48:17;19.20;99.90
25192;DHT22;13143;50.924;5.320;2023-07-02T09:50:47;19.20;99.90
25192;DHT22;13143;50.924;5.320;2023-07-02T09:53:14;19.20;99.90
25192;DHT22;13143;50.924;5.320;2023-07-02T09:55:44;19.20;99.90
25192;DHT22;13143;50.924;5.320;2023-07-02T09:58:10;19.20;99.90
25192;DHT22;13143;50.924;5.320;2023-07-02T10:00:41;19.20;99.90
25192;DHT22;13143;50.924;5.320;2023-07-02T10:03:07;19.30;99.90
25192;DHT22;13143;50.924;5.320;2023-07-02T10:05:34;19.30;99.90
25192;DHT22;13143;50.924;5.320;2023-07-02T10:08:14;19.40;99.90
25192;DHT22;13143;50.924;5.320;2023-07-02T10:10:42;19.40;99.90
25192;DHT22;13143;50.924;5.320;2023-07-02T10:13:09;19.40;99.90
25192;DHT22;13143;50.924;5.320;2023-07-02T10:15:35;19.50;99.90
25192;DHT22;13143;50.924;5.320;2023-07-02T10:18:05;19.50;99.90
25192;DHT22;13143;50.924;5.320;2023-07-02T10:20:36;19.50;99.90
25192;DHT22;13143;50.924;5.320;2023-07-02T10:23:04;19.50;99.90
25192;DHT22;13143;50.924;5.320;2023-07-02T10:25:32;19.60;99.90
25192;DHT22;13143;50.924;5.320;2023-07-02T10:28:01;19.60;99.90
25192;DHT22;13143;50.924;5.320;2023-07-02T10:30:36;19.60;99.90
25192;DHT22;13143;50.924;5.320;2023-07-02T10:33:15;19.60;99.90
25192;DHT22;13143;50.924;5.320;2023-07-02T10:35:47;19.60;99.90
25192;DHT22;13143;50.924;5.320;2023-07-02T10:38:17;19.70;99.90
25192;DHT22;13143;50.924;5.320;2023-07-02T10:40:43;19.70;99.90
25192;DHT22;13143;50.924;5.320;2023-07-02T10:43:10;19.70;99.90
25192;DHT22;13143;50.924;5.320;2023-07-02T10:45:36;19.80;99.90
25192;DHT22;13143;50.924;5.320;2023-07-02T10:48:04;19.70;99.90
25192;DHT22;13143;50.924;5.320;2023-07-02T10:50:31;19.80;99.90
25192;DHT22;13143;50.924;5.320;2023-07-02T10:53:00;19.80;99.90
25192;DHT22;13143;50.924;5.320;2023-07-02T10:55:27;19.80;99.90
25192;DHT22;13143;50.924;5.320;2023-07-02T10:58:09;19.80;99.90
25192;DHT22;13143;50.924;5.320;2023-07-02T11:00:49;19.90;99.90
25192;DHT22;13143;50.924;5.320;2023-07-02T11:05:43;19.90;99.90
25192;DHT22;13143;50.924;5.320;2023-07-02T11:08:09;19.90;99.90
25192;DHT22;13143;50.924;5.320;2023-07-02T11:10:35;19.90;99.90
25192;DHT22;13143;50.924;5.320;2023-07-02T11:13:15;20.00;99.90
25192;DHT22;13143;50.924;5.320;2023-07-02T11:15:42;20.00;99.90
25192;DHT22;13143;50.924;5.320;2023-07-02T11:18:09;20.00;99.90
25192;DHT22;13143;50.924;5.320;2023-07-02T11:20:36;20.10;99.90
25192;DHT22;13143;50.924;5.320;2023-07-02T11:23:02;20.10;99.90
25192;DHT22;13143;50.924;5.320;2023-07-02T11:25:28;20.10;99.90
25192;DHT22;13143;50.924;5.320;2023-07-02T11:28:04;20.10;99.90
25192;DHT22;13143;50.924;5.320;2023-07-02T11:30:30;20.10;99.90
25192;DHT22;13143;50.924;5.320;2023-07-02T11:32:57;20.20;99.90
25192;DHT22;13143;50.924;5.320;2023-07-02T11:35:34;20.20;99.90
25192;DHT22;13143;50.924;5.320;2023-07-02T11:38:01;20.20;99.90
25192;DHT22;13143;50.924;5.320;2023-07-02T11:40:27;20.20;99.90
25192;DHT22;13143;50.924;5.320;2023-07-02T11:42:53;20.30;99.90
25192;DHT22;13143;50.924;5.320;2023-07-02T11:45:19;20.30;99.90
25192;DHT22;13143;50.924;5.320;2023-07-02T11:47:45;20.30;99.90
25192;DHT22;13143;50.924;5.320;2023-07-02T11:50:11;20.30;99.90
25192;DHT22;13143;50.924;5.320;2023-07-02T11:52:37;20.30;99.90
25192;DHT22;13143;50.924;5.320;2023-07-02T11:55:03;20.30;99.90
25192;DHT22;13143;50.924;5.320;2023-07-02T11:57:30;20.30;99.90
25192;DHT22;13143;50.924;5.320;2023-07-02T11:59:56;20.40;99.90
25192;DHT22;13143;50.924;5.320;2023-07-02T12:02:22;20.40;99.90
25192;DHT22;13143;50.924;5.320;2023-07-02T12:04:48;20.40;99.90
25192;DHT22;13143;50.924;5.320;2023-07-02T12:07:14;20.40;99.90
25192;DHT22;13143;50.924;5.320;2023-07-02T12:09:40;20.40;99.90
25192;DHT22;13143;50.924;5.320;2023-07-02T12:12:07;20.50;99.90
25192;DHT22;13143;50.924;5.320;2023-07-02T12:14:33;20.50;99.90
25192;DHT22;13143;50.924;5.320;2023-07-02T12:16:59;20.50;99.90
25192;DHT22;13143;50.924;5.320;2023-07-02T12:19:25;20.50;99.90
25192;DHT22;13143;50.924;5.320;2023-07-02T12:21:51;20.50;99.90
25192;DHT22;13143;50.924;5.320;2023-07-02T12:24:17;20.50;99.90
25192;DHT22;13143;50.924;5.320;2023-07-02T12:26:43;20.50;99.90
25192;DHT22;13143;50.924;5.320;2023-07-02T12:29:09;20.60;99.90
25192;DHT22;13143;50.924;5.320;2023-07-02T12:31:36;20.60;99.90
25192;DHT22;13143;50.924;5.320;2023-07-02T12:34:02;20.60;99.90
25192;DHT22;13143;50.924;5.320;2023-07-02T12:36:29;20.60;99.90
25192;DHT22;13143;50.924;5.320;2023-07-02T12:38:55;20.60;99.90
25192;DHT22;13143;50.924;5.320;2023-07-02T12:41:21;20.70;99.90
25192;DHT22;13143;50.924;5.320;2023-07-02T12:43:47;20.70;99.90
25192;DHT22;13143;50.924;5.320;2023-07-02T12:46:13;20.70;99.90
25192;DHT22;13143;50.924;5.320;2023-07-02T12:48:39;20.70;99.90
25192;DHT22;13143;50.924;5.320;2023-07-02T12:51:05;20.70;99.90
25192;DHT22;13143;50.924;5.320;2023-07-02T12:53:31;20.80;99.90
25192;DHT22;13143;50.924;5.320;2023-07-02T12:55:57;20.80;99.90
25192;DHT22;13143;50.924;5.320;2023-07-02T12:58:23;20.80;99.90
25192;DHT22;13143;50.924;5.320;2023-07-02T13:00:49;20.80;99.90
25192;DHT22;13143;50.924;5.320;2023-07-02T13:03:17;20.80;99.70
25192;DHT22;13143;50.924;5.320;2023-07-02T13:05:43;20.80;98.80
25192;DHT22;13143;50.924;5.320;2023-07-02T13:08:10;20.80;98.70
25192;DHT22;13143;50.924;5.320;2023-07-02T13:10:37;20.90;99.20
25192;DHT22;13143;50.924;5.320;2023-07-02T13:13:03;20.90;99.50
25192;DHT22;13143;50.924;5.320;2023-07-02T13:15:29;20.90;99.90
25192;DHT22;13143;50.924;5.320;2023-07-02T13:17:55;20.90;99.90
25192;DHT22;13143;50.924;5.320;2023-07-02T13:20:21;20.90;99.90
25192;DHT22;13143;50.924;5.320;2023-07-02T13:22:47;21.00;99.90
25192;DHT22;13143;50.924;5.320;2023-07-02T13:25:13;21.00;99.90
25192;DHT22;13143;50.924;5.320;2023-07-02T13:27:39;21.00;99.90
25192;DHT22;13143;50.924;5.320;2023-07-02T13:30:06;21.00;99.90
25192;DHT22;13143;50.924;5.320;2023-07-02T13:32:34;21.10;99.90
25192;DHT22;13143;50.924;5.320;2023-07-02T13:35:00;21.10;99.90
25192;DHT22;13143;50.924;5.320;2023-07-02T13:37:26;21.10;99.90
25192;DHT22;13143;50.924;5.320;2023-07-02T13:39:52;21.10;99.90
25192;DHT22;13143;50.924;5.320;2023-07-02T13:42:18;21.10;99.90
25192;DHT22;13143;50.924;5.320;2023-07-02T13:44:45;21.10;99.90
25192;DHT22;13143;50.924;5.320;2023-07-02T13:47:11;21.10;99.70
25192;DHT22;13143;50.924;5.320;2023-07-02T13:49:37;21.20;98.70
25192;DHT22;13143;50.924;5.320;2023-07-02T13:52:03;21.20;98.60
25192;DHT22;13143;50.924;5.320;2023-07-02T13:54:30;21.20;98.10
25192;DHT22;13143;50.924;5.320;2023-07-02T13:56:56;21.20;98.00
25192;DHT22;13143;50.924;5.320;2023-07-02T13:59:23;21.30;98.10
25192;DHT22;13143;50.924;5.320;2023-07-02T14:01:49;21.20;98.10
25192;DHT22;13143;50.924;5.320;2023-07-02T14:04:16;21.30;97.90
25192;DHT22;13143;50.924;5.320;2023-07-02T14:06:43;21.30;97.90
25192;DHT22;13143;50.924;5.320;2023-07-02T14:09:10;21.30;97.90
25192;DHT22;13143;50.924;5.320;2023-07-02T14:11:39;21.30;97.90
25192;DHT22;13143;50.924;5.320;2023-07-02T14:14:06;21.40;98.10
25192;DHT22;13143;50.924;5.320;2023-07-02T14:16:32;21.40;98.10
25192;DHT22;13143;50.924;5.320;2023-07-02T14:18:58;21.40;98.20
25192;DHT22;13143;50.924;5.320;2023-07-02T14:21:24;21.40;98.20
25192;DHT22;13143;50.924;5.320;2023-07-02T14:23:50;21.40;98.30
25192;DHT22;13143;50.924;5.320;2023-07-02T14:26:17;21.40;98.40
25192;DHT22;13143;50.924;5.320;2023-07-02T14:28:43;21.50;98.50
25192;DHT22;13143;50.924;5.320;2023-07-02T14:31:09;21.50;98.60
25192;DHT22;13143;50.924;5.320;2023-07-02T14:33:36;21.50;98.20
25192;DHT22;13143;50.924;5.320;2023-07-02T14:36:03;21.50;97.70
25192;DHT22;13143;50.924;5.320;2023-07-02T14:38:30;21.60;97.90
25192;DHT22;13143;50.924;5.320;2023-07-02T14:40:56;21.60;98.00
25192;DHT22;13143;50.924;5.320;2023-07-02T14:43:25;21.60;98.20
25192;DHT22;13143;50.924;5.320;2023-07-02T14:45:53;21.60;98.10
25192;DHT22;13143;50.924;5.320;2023-07-02T14:48:21;21.60;98.20
25192;DHT22;13143;50.924;5.320;2023-07-02T14:50:52;21.70;98.10
25192;DHT22;13143;50.924;5.320;2023-07-02T14:53:19;21.70;98.00
25192;DHT22;13143;50.924;5.320;2023-07-02T14:55:46;21.70;97.80
25192;DHT22;13143;50.924;5.320;2023-07-02T14:58:14;21.70;97.80
25192;DHT22;13143;50.924;5.320;2023-07-02T15:03:10;21.70;97.80
25192;DHT22;13143;50.924;5.320;2023-07-02T15:05:36;21.70;97.70
25192;DHT22;13143;50.924;5.320;2023-07-02T15:08:02;21.80;97.70
25192;DHT22;13143;50.924;5.320;2023-07-02T15:10:28;21.80;97.60
25192;DHT22;13143;50.924;5.320;2023-07-02T15:12:54;21.80;97.50
25192;DHT22;13143;50.924;5.320;2023-07-02T15:15:21;21.80;97.20
25192;DHT22;13143;50.924;5.320;2023-07-02T15:17:48;21.80;96.40
25192;DHT22;13143;50.924;5.320;2023-07-02T15:20:14;21.80;96.00
25192;DHT22;13143;50.924;5.320;2023-07-02T15:22:40;21.80;96.10
25192;DHT22;13143;50.924;5.320;2023-07-02T15:25:07;21.90;96.50
25192;DHT22;13143;50.924;5.320;2023-07-02T15:27:33;21.90;96.70
25192;DHT22;13143;50.924;5.320;2023-07-02T15:29:59;21.90;96.70
25192;DHT22;13143;50.924;5.320;2023-07-02T15:32:25;21.90;96.60
25192;DHT22;13143;50.924;5.320;2023-07-02T15:34:51;22.00;96.50